sensor_id;sensor_type;location;lat;lon;timestamp;temperature;humidity
10451;DHT22;5273;51.290;6.918;2022-07-03T00:01:52;20.70;56.60
10451;DHT22;5273;51.290;6.918;2022-07-03T00:04:19;20.60;57.10
10451;DHT22;5273;51.290;6.918;2022-07-03T00:06:47;20.60;58.40
10451;DHT22;5273;51.290;6.918;2022-07-03T00:09:14;20.50;58.80
10451;DHT22;5273;51.290;6.918;2022-07-03T00:11:42;20.50;58.80
10451;DHT22;5273;51.290;6.918;2022-07-03T00:14:09;20.50;59.20
10451;DHT22;5273;51.290;6.918;2022-07-03T00:16:36;20.40;60.20
10451;DHT22;5273;51.290;6.918;2022-07-03T00:19:04;20.40;61.30
10451;DHT22;5273;51.290;6.918;2022-07-03T00:21:38;20.30;62.70
10451;DHT22;5273;51.290;6.918;2022-07-03T00:24:08;20.30;63.80
10451;DHT22;5273;51.290;6.918;2022-07-03T00:26:39;20.20;65.70
10451;DHT22;5273;51.290;6.918;2022-07-03T00:29:08;20.10;65.70
10451;DHT22;5273;51.290;6.918;2022-07-03T00:31:36;20.10;65.80
10451;DHT22;5273;51.290;6.918;2022-07-03T00:34:08;20.10;66.10
10451;DHT22;5273;51.290;6.918;2022-07-03T00:36:37;20.00;66.30
10451;DHT22;5273;51.290;6.918;2022-07-03T00:39:04;19.90;66.30
10451;DHT22;5273;51.290;6.918;2022-07-03T00:41:34;19.90;65.70
10451;DHT22;5273;51.290;6.918;2022-07-03T00:44:02;19.90;65.90
10451;DHT22;5273;51.290;6.918;2022-07-03T00:46:29;19.90;66.70
10451;DHT22;5273;51.290;6.918;2022-07-03T00:48:58;19.80;66.00
10451;DHT22;5273;51.290;6.918;2022-07-03T00:51:28;19.80;67.30
10451;DHT22;5273;51.290;6.918;2022-07-03T00:53:56;19.80;69.50
10451;DHT22;5273;51.290;6.918;2022-07-03T00:56:26;19.70;71.20
10451;DHT22;5273;51.290;6.918;2022-07-03T00:58:55;19.60;72.80
10451;DHT22;5273;51.290;6.918;2022-07-03T01:01:24;19.60;74.30
10451;DHT22;5273;51.290;6.918;2022-07-03T01:04:01;19.50;74.20
10451;DHT22;5273;51.290;6.918;2022-07-03T01:06:35;19.50;74.00
10451;DHT22;5273;51.290;6.918;2022-07-03T01:09:05;19.40;73.60
10451;DHT22;5273;51.290;6.918;2022-07-03T01:11:37;19.30;73.00
10451;DHT22;5273;51.290;6.918;2022-07-03T01:14:15;19.20;73.50
10451;DHT22;5273;51.290;6.918;2022-07-03T01:16:53;19.10;74.00
10451;DHT22;5273;51.290;6.918;2022-07-03T01:19:35;18.90;75.60
10451;DHT22;5273;51.290;6.918;2022-07-03T01:22:17;18.80;75.30
10451;DHT22;5273;51.290;6.918;2022-07-03T01:25:02;18.60;73.40
10451;DHT22;5273;51.290;6.918;2022-07-03T01:27:34;18.60;73.40
10451;DHT22;5273;51.290;6.918;2022-07-03T01:30:04;18.50;73.00
10451;DHT22;5273;51.290;6.918;2022-07-03T01:32:34;18.40;73.20
10451;DHT22;5273;51.290;6.918;2022-07-03T01:35:06;18.40;73.60
10451;DHT22;5273;51.290;6.918;2022-07-03T01:37:34;18.30;73.80
10451;DHT22;5273;51.290;6.918;2022-07-03T01:40:03;18.20;74.30
10451;DHT22;5273;51.290;6.918;2022-07-03T01:42:33;18.20;75.00
10451;DHT22;5273;51.290;6.918;2022-07-03T01:45:00;18.20;75.30
10451;DHT22;5273;51.290;6.918;2022-07-03T01:47:29;18.20;76.00
10451;DHT22;5273;51.290;6.918;2022-07-03T01:49:58;18.20;76.00
10451;DHT22;5273;51.290;6.918;2022-07-03T01:52:30;18.20;76.10
10451;DHT22;5273;51.290;6.918;2022-07-03T01:54:59;18.10;76.10
10451;DHT22;5273;51.290;6.918;2022-07-03T01:57:34;18.00;76.60
10451;DHT22;5273;51.290;6.918;2022-07-03T02:00:04;18.00;76.40
10451;DHT22;5273;51.290;6.918;2022-07-03T02:02:33;18.00;76.50
10451;DHT22;5273;51.290;6.918;2022-07-03T02:05:08;17.90;76.10
10451;DHT22;5273;51.290;6.918;2022-07-03T02:07:39;17.90;76.20
10451;DHT22;5273;51.290;6.918;2022-07-03T02:10:08;17.90;76.70
10451;DHT22;5273;51.290;6.918;2022-07-03T02:12:40;17.90;76.40
10451;DHT22;5273;51.290;6.918;2022-07-03T02:15:16;18.00;77.30
10451;DHT22;5273;51.290;6.918;2022-07-03T02:17:47;18.00;76.50
10451;DHT22;5273;51.290;6.918;2022-07-03T02:20:15;17.90;76.10
10451;DHT22;5273;51.290;6.918;2022-07-03T02:22:44;18.00;75.70
10451;DHT22;5273;51.290;6.918;2022-07-03T02:25:19;18.00;75.10
10451;DHT22;5273;51.290;6.918;2022-07-03T02:27:53;18.00;75.50
10451;DHT22;5273;51.290;6.918;2022-07-03T02:30:23;17.90;75.50
10451;DHT22;5273;51.290;6.918;2022-07-03T02:32:51;17.90;75.70
10451;DHT22;5273;51.290;6.918;2022-07-03T02:35:28;17.90;76.10
10451;DHT22;5273;51.290;6.918;2022-07-03T02:38:01;17.90;75.70
10451;DHT22;5273;51.290;6.918;2022-07-03T02:40:34;17.90;75.70
10451;DHT22;5273;51.290;6.918;2022-07-03T02:43:14;17.90;75.00
10451;DHT22;5273;51.290;6.918;2022-07-03T02:45:48;17.90;75.40
10451;DHT22;5273;51.290;6.918;2022-07-03T02:48:24;17.80;75.40
10451;DHT22;5273;51.290;6.918;2022-07-03T02:50:58;17.80;75.70
10451;DHT22;5273;51.290;6.918;2022-07-03T02:53:30;17.80;75.70
10451;DHT22;5273;51.290;6.918;2022-07-03T02:56:06;17.80;75.40
10451;DHT22;5273;51.290;6.918;2022-07-03T02:58:57;17.80;75.60
10451;DHT22;5273;51.290;6.918;2022-07-03T03:01:35;17.80;75.80
10451;DHT22;5273;51.290;6.918;2022-07-03T03:04:09;17.70;75.20
10451;DHT22;5273;51.290;6.918;2022-07-03T03:06:41;17.70;74.80
10451;DHT22;5273;51.290;6.918;2022-07-03T03:09:14;17.80;74.90
10451;DHT22;5273;51.290;6.918;2022-07-03T03:11:45;17.70;75.30
10451;DHT22;5273;51.290;6.918;2022-07-03T03:14:15;17.80;75.30
10451;DHT22;5273;51.290;6.918;2022-07-03T03:16:46;17.70;75.10
10451;DHT22;5273;51.290;6.918;2022-07-03T03:19:14;17.70;75.40
10451;DHT22;5273;51.290;6.918;2022-07-03T03:21:45;17.70;75.80
10451;DHT22;5273;51.290;6.918;2022-07-03T03:24:18;17.70;76.20
10451;DHT22;5273;51.290;6.918;2022-07-03T03:26:45;17.60;76.10
10451;DHT22;5273;51.290;6.918;2022-07-03T03:29:13;17.60;76.20
10451;DHT22;5273;51.290;6.918;2022-07-03T03:31:40;17.60;76.40
10451;DHT22;5273;51.290;6.918;2022-07-03T03:34:07;17.60;76.70
10451;DHT22;5273;51.290;6.918;2022-07-03T03:36:36;17.60;76.90
10451;DHT22;5273;51.290;6.918;2022-07-03T03:39:03;17.60;77.90
10451;DHT22;5273;51.290;6.918;2022-07-03T03:41:30;17.60;81.60
10451;DHT22;5273;51.290;6.918;2022-07-03T03:43:57;17.50;83.20
10451;DHT22;5273;51.290;6.918;2022-07-03T03:46:25;17.40;82.20
10451;DHT22;5273;51.290;6.918;2022-07-03T03:48:52;17.50;80.70
10451;DHT22;5273;51.290;6.918;2022-07-03T03:51:19;17.40;79.40
10451;DHT22;5273;51.290;6.918;2022-07-03T03:53:45;17.40;79.90
10451;DHT22;5273;51.290;6.918;2022-07-03T03:56:13;17.40;79.90
10451;DHT22;5273;51.290;6.918;2022-07-03T03:58:41;17.40;81.60
10451;DHT22;5273;51.290;6.918;2022-07-03T04:01:10;17.50;82.80
10451;DHT22;5273;51.290;6.918;2022-07-03T04:03:39;17.50;81.20
10451;DHT22;5273;51.290;6.918;2022-07-03T04:06:05;17.40;82.00
10451;DHT22;5273;51.290;6.918;2022-07-03T04:08:33;17.30;81.20
10451;DHT22;5273;51.290;6.918;2022-07-03T04:11:00;17.30;81.50
10451;DHT22;5273;51.290;6.918;2022-07-03T04:13:27;17.20;81.70
10451;DHT22;5273;51.290;6.918;2022-07-03T04:15:54;17.20;82.60
10451;DHT22;5273;51.290;6.918;2022-07-03T04:18:21;17.10;82.30
10451;DHT22;5273;51.290;6.918;2022-07-03T04:20:50;17.20;82.10
10451;DHT22;5273;51.290;6.918;2022-07-03T04:23:17;17.20;82.10
10451;DHT22;5273;51.290;6.918;2022-07-03T04:25:44;17.30;82.70
10451;DHT22;5273;51.290;6.918;2022-07-03T04:28:11;17.30;82.70
10451;DHT22;5273;51.290;6.918;2022-07-03T04:30:38;17.30;82.60
10451;DHT22;5273;51.290;6.918;2022-07-03T04:33:05;17.30;82.80
10451;DHT22;5273;51.290;6.918;2022-07-03T04:35:32;17.40;83.40
10451;DHT22;5273;51.290;6.918;2022-07-03T04:38:00;17.40;83.50
10451;DHT22;5273;51.290;6.918;2022-07-03T04:40:27;17.40;83.70
10451;DHT22;5273;51.290;6.918;2022-07-03T04:42:54;17.50;83.80
10451;DHT22;5273;51.290;6.918;2022-07-03T04:45:21;17.50;84.20
10451;DHT22;5273;51.290;6.918;2022-07-03T04:47:48;17.60;84.70
10451;DHT22;5273;51.290;6.918;2022-07-03T04:50:15;17.70;86.00
10451;DHT22;5273;51.290;6.918;2022-07-03T04:52:42;17.70;86.40
10451;DHT22;5273;51.290;6.918;2022-07-03T04:55:10;17.70;86.60
10451;DHT22;5273;51.290;6.918;2022-07-03T04:57:38;17.90;87.00
10451;DHT22;5273;51.290;6.918;2022-07-03T05:00:05;17.90;86.70
10451;DHT22;5273;51.290;6.918;2022-07-03T05:02:32;18.10;87.20
10451;DHT22;5273;51.290;6.918;2022-07-03T05:04:59;18.10;86.60
10451;DHT22;5273;51.290;6.918;2022-07-03T05:07:26;18.20;86.80
10451;DHT22;5273;51.290;6.918;2022-07-03T05:09:53;18.30;87.00
10451;DHT22;5273;51.290;6.918;2022-07-03T05:12:21;18.30;86.90
10451;DHT22;5273;51.290;6.918;2022-07-03T05:14:48;18.30;87.00
10451;DHT22;5273;51.290;6.918;2022-07-03T05:17:16;18.40;86.90
10451;DHT22;5273;51.290;6.918;2022-07-03T05:19:43;18.40;87.50
10451;DHT22;5273;51.290;6.918;2022-07-03T05:22:10;18.50;88.30
10451;DHT22;5273;51.290;6.918;2022-07-03T05:24:37;18.60;89.10
10451;DHT22;5273;51.290;6.918;2022-07-03T05:27:04;18.70;89.80
10451;DHT22;5273;51.290;6.918;2022-07-03T05:29:33;18.80;89.70
10451;DHT22;5273;51.290;6.918;2022-07-03T05:31:59;18.90;89.60
10451;DHT22;5273;51.290;6.918;2022-07-03T05:34:26;19.00;89.60
10451;DHT22;5273;51.290;6.918;2022-07-03T05:36:53;19.20;90.00
10451;DHT22;5273;51.290;6.918;2022-07-03T05:39:22;19.30;90.00
10451;DHT22;5273;51.290;6.918;2022-07-03T05:42:04;19.50;89.60
10451;DHT22;5273;51.290;6.918;2022-07-03T05:44:32;19.70;88.70
10451;DHT22;5273;51.290;6.918;2022-07-03T05:46:59;19.80;87.90
10451;DHT22;5273;51.290;6.918;2022-07-03T05:49:26;19.90;87.90
10451;DHT22;5273;51.290;6.918;2022-07-03T05:51:53;20.10;87.10
10451;DHT22;5273;51.290;6.918;2022-07-03T05:54:20;20.30;85.70
10451;DHT22;5273;51.290;6.918;2022-07-03T05:56:47;20.50;85.00
10451;DHT22;5273;51.290;6.918;2022-07-03T05:59:13;20.70;83.30
10451;DHT22;5273;51.290;6.918;2022-07-03T06:01:42;20.90;82.30
10451;DHT22;5273;51.290;6.918;2022-07-03T06:04:08;21.10;81.70
10451;DHT22;5273;51.290;6.918;2022-07-03T06:06:35;21.30;80.50
10451;DHT22;5273;51.290;6.918;2022-07-03T06:09:02;21.60;79.70
10451;DHT22;5273;51.290;6.918;2022-07-03T06:11:29;21.70;79.00
10451;DHT22;5273;51.290;6.918;2022-07-03T06:13:56;22.00;80.00
10451;DHT22;5273;51.290;6.918;2022-07-03T06:16:23;22.40;77.50
10451;DHT22;5273;51.290;6.918;2022-07-03T06:18:51;22.80;73.90
10451;DHT22;5273;51.290;6.918;2022-07-03T06:21:18;23.20;71.60
10451;DHT22;5273;51.290;6.918;2022-07-03T06:23:45;23.70;70.70
10451;DHT22;5273;51.290;6.918;2022-07-03T06:26:12;24.30;67.90
10451;DHT22;5273;51.290;6.918;2022-07-03T06:28:39;24.90;65.30
10451;DHT22;5273;51.290;6.918;2022-07-03T06:31:06;25.60;62.80
10451;DHT22;5273;51.290;6.918;2022-07-03T06:33:33;26.30;59.70
10451;DHT22;5273;51.290;6.918;2022-07-03T06:36:01;26.90;57.50
10451;DHT22;5273;51.290;6.918;2022-07-03T06:38:28;27.50;55.30
10451;DHT22;5273;51.290;6.918;2022-07-03T06:40:55;28.10;53.90
10451;DHT22;5273;51.290;6.918;2022-07-03T06:43:22;28.70;52.40
10451;DHT22;5273;51.290;6.918;2022-07-03T06:45:49;29.20;50.10
10451;DHT22;5273;51.290;6.918;2022-07-03T06:48:16;29.80;48.40
10451;DHT22;5273;51.290;6.918;2022-07-03T06:50:42;30.40;46.50
10451;DHT22;5273;51.290;6.918;2022-07-03T06:53:11;30.80;44.70
10451;DHT22;5273;51.290;6.918;2022-07-03T06:55:37;31.30;43.70
10451;DHT22;5273;51.290;6.918;2022-07-03T06:58:04;31.70;42.20
10451;DHT22;5273;51.290;6.918;2022-07-03T07:00:31;32.00;39.80
10451;DHT22;5273;51.290;6.918;2022-07-03T07:02:58;32.40;39.10
10451;DHT22;5273;51.290;6.918;2022-07-03T07:05:25;32.80;38.10
10451;DHT22;5273;51.290;6.918;2022-07-03T07:07:52;33.30;37.00
10451;DHT22;5273;51.290;6.918;2022-07-03T07:10:20;33.60;35.80
10451;DHT22;5273;51.290;6.918;2022-07-03T07:12:47;33.90;35.10
10451;DHT22;5273;51.290;6.918;2022-07-03T07:15:14;34.30;34.40
10451;DHT22;5273;51.290;6.918;2022-07-03T07:17:41;34.70;33.30
10451;DHT22;5273;51.290;6.918;2022-07-03T07:20:09;35.00;32.30
10451;DHT22;5273;51.290;6.918;2022-07-03T07:22:36;35.40;32.50
10451;DHT22;5273;51.290;6.918;2022-07-03T07:25:03;35.90;31.40
10451;DHT22;5273;51.290;6.918;2022-07-03T07:27:31;36.20;31.40
10451;DHT22;5273;51.290;6.918;2022-07-03T07:29:58;36.30;30.90
10451;DHT22;5273;51.290;6.918;2022-07-03T07:32:25;36.60;30.00
10451;DHT22;5273;51.290;6.918;2022-07-03T07:34:52;36.90;29.60
10451;DHT22;5273;51.290;6.918;2022-07-03T07:37:19;37.30;28.90
10451;DHT22;5273;51.290;6.918;2022-07-03T07:39:45;37.70;28.30
10451;DHT22;5273;51.290;6.918;2022-07-03T07:42:12;38.00;27.90
10451;DHT22;5273;51.290;6.918;2022-07-03T07:44:40;38.40;26.40
10451;DHT22;5273;51.290;6.918;2022-07-03T07:47:07;38.60;27.70
10451;DHT22;5273;51.290;6.918;2022-07-03T07:49:34;38.70;27.20
10451;DHT22;5273;51.290;6.918;2022-07-03T07:52:01;39.00;27.20
10451;DHT22;5273;51.290;6.918;2022-07-03T07:54:29;39.20;26.50
10451;DHT22;5273;51.290;6.918;2022-07-03T07:56:56;39.40;26.30
10451;DHT22;5273;51.290;6.918;2022-07-03T07:59:22;39.30;26.30
10451;DHT22;5273;51.290;6.918;2022-07-03T08:01:51;39.30;26.10
10451;DHT22;5273;51.290;6.918;2022-07-03T08:04:31;39.50;26.50
10451;DHT22;5273;51.290;6.918;2022-07-03T08:07:21;39.50;25.80
10451;DHT22;5273;51.290;6.918;2022-07-03T08:09:48;39.60;25.40
10451;DHT22;5273;51.290;6.918;2022-07-03T08:12:18;39.80;25.30
10451;DHT22;5273;51.290;6.918;2022-07-03T08:14:45;39.70;26.20
10451;DHT22;5273;51.290;6.918;2022-07-03T08:17:13;40.00;25.20
10451;DHT22;5273;51.290;6.918;2022-07-03T08:19:40;40.10;24.70
10451;DHT22;5273;51.290;6.918;2022-07-03T08:22:07;40.30;24.60
10451;DHT22;5273;51.290;6.918;2022-07-03T08:24:33;40.60;25.00
10451;DHT22;5273;51.290;6.918;2022-07-03T08:27:00;40.80;24.20
10451;DHT22;5273;51.290;6.918;2022-07-03T08:29:27;41.10;25.00
10451;DHT22;5273;51.290;6.918;2022-07-03T08:31:54;41.40;24.40
10451;DHT22;5273;51.290;6.918;2022-07-03T08:34:23;41.50;23.10
10451;DHT22;5273;51.290;6.918;2022-07-03T08:36:50;41.60;23.10
10451;DHT22;5273;51.290;6.918;2022-07-03T08:39:17;41.60;23.10
10451;DHT22;5273;51.290;6.918;2022-07-03T08:41:45;41.80;22.70
10451;DHT22;5273;51.290;6.918;2022-07-03T08:44:15;42.30;23.10
10451;DHT22;5273;51.290;6.918;2022-07-03T08:46:44;42.50;22.00
10451;DHT22;5273;51.290;6.918;2022-07-03T08:49:11;42.70;22.00
10451;DHT22;5273;51.290;6.918;2022-07-03T08:51:41;42.90;22.30
10451;DHT22;5273;51.290;6.918;2022-07-03T08:54:08;43.00;21.70
10451;DHT22;5273;51.290;6.918;2022-07-03T08:56:35;42.90;21.60
10451;DHT22;5273;51.290;6.918;2022-07-03T08:59:04;42.80;21.40
10451;DHT22;5273;51.290;6.918;2022-07-03T09:01:32;42.90;22.60
10451;DHT22;5273;51.290;6.918;2022-07-03T09:04:00;42.80;22.20
10451;DHT22;5273;51.290;6.918;2022-07-03T09:06:30;42.90;22.20
10451;DHT22;5273;51.290;6.918;2022-07-03T09:09:01;42.80;21.70
10451;DHT22;5273;51.290;6.918;2022-07-03T09:11:28;43.00;21.30
10451;DHT22;5273;51.290;6.918;2022-07-03T09:13:55;43.00;21.20
10451;DHT22;5273;51.290;6.918;2022-07-03T09:16:22;43.20;21.70
10451;DHT22;5273;51.290;6.918;2022-07-03T09:18:49;43.30;21.10
10451;DHT22;5273;51.290;6.918;2022-07-03T09:21:16;43.40;21.20
10451;DHT22;5273;51.290;6.918;2022-07-03T09:23:44;43.40;20.30
10451;DHT22;5273;51.290;6.918;2022-07-03T09:26:15;43.40;21.30
10451;DHT22;5273;51.290;6.918;2022-07-03T09:28:45;43.70;21.20
10451;DHT22;5273;51.290;6.918;2022-07-03T09:31:14;43.80;20.80
10451;DHT22;5273;51.290;6.918;2022-07-03T09:33:53;43.80;21.20
10451;DHT22;5273;51.290;6.918;2022-07-03T09:36:21;44.00;21.20
10451;DHT22;5273;51.290;6.918;2022-07-03T09:38:48;44.00;20.90
10451;DHT22;5273;51.290;6.918;2022-07-03T09:41:17;44.10;21.30
10451;DHT22;5273;51.290;6.918;2022-07-03T09:43:44;44.20;21.10
10451;DHT22;5273;51.290;6.918;2022-07-03T09:46:11;44.70;20.40
10451;DHT22;5273;51.290;6.918;2022-07-03T09:48:40;45.20;20.40
10451;DHT22;5273;51.290;6.918;2022-07-03T09:51:12;45.10;19.30
10451;DHT22;5273;51.290;6.918;2022-07-03T09:53:50;44.90;19.30
10451;DHT22;5273;51.290;6.918;2022-07-03T09:56:20;45.10;19.40
10451;DHT22;5273;51.290;6.918;2022-07-03T09:59:01;45.10;19.10
10451;DHT22;5273;51.290;6.918;2022-07-03T10:01:28;45.10;19.40
10451;DHT22;5273;51.290;6.918;2022-07-03T10:04:08;45.00;20.20
10451;DHT22;5273;51.290;6.918;2022-07-03T10:06:49;44.80;19.70
10451;DHT22;5273;51.290;6.918;2022-07-03T10:09:17;44.90;19.90
10451;DHT22;5273;51.290;6.918;2022-07-03T10:11:46;45.10;19.10
10451;DHT22;5273;51.290;6.918;2022-07-03T10:14:14;44.90;19.20
10451;DHT22;5273;51.290;6.918;2022-07-03T10:16:41;44.90;18.80
10451;DHT22;5273;51.290;6.918;2022-07-03T10:19:12;44.80;19.10
10451;DHT22;5273;51.290;6.918;2022-07-03T10:21:42;44.90;19.60
10451;DHT22;5273;51.290;6.918;2022-07-03T10:24:11;45.00;19.50
10451;DHT22;5273;51.290;6.918;2022-07-03T10:26:40;45.20;19.80
10451;DHT22;5273;51.290;6.918;2022-07-03T10:29:10;45.20;19.80
10451;DHT22;5273;51.290;6.918;2022-07-03T10:31:43;45.30;18.70
10451;DHT22;5273;51.290;6.918;2022-07-03T10:34:11;45.30;20.00
10451;DHT22;5273;51.290;6.918;2022-07-03T10:36:39;45.10;19.40
10451;DHT22;5273;51.290;6.918;2022-07-03T10:39:06;45.00;19.60
10451;DHT22;5273;51.290;6.918;2022-07-03T10:41:36;44.90;19.90
10451;DHT22;5273;51.290;6.918;2022-07-03T10:44:24;44.70;20.90
10451;DHT22;5273;51.290;6.918;2022-07-03T10:47:37;44.60;20.10
10451;DHT22;5273;51.290;6.918;2022-07-03T10:50:07;44.70;20.20
10451;DHT22;5273;51.290;6.918;2022-07-03T10:52:35;44.30;20.90
10451;DHT22;5273;51.290;6.918;2022-07-03T10:55:03;43.70;20.40
10451;DHT22;5273;51.290;6.918;2022-07-03T10:57:32;42.90;21.30
10451;DHT22;5273;51.290;6.918;2022-07-03T11:00:04;41.90;22.00
10451;DHT22;5273;51.290;6.918;2022-07-03T11:02:36;41.20;23.00
10451;DHT22;5273;51.290;6.918;2022-07-03T11:08:18;39.90;23.80
10451;DHT22;5273;51.290;6.918;2022-07-03T11:10:45;39.20;24.40
10451;DHT22;5273;51.290;6.918;2022-07-03T11:13:32;38.90;24.80
10451;DHT22;5273;51.290;6.918;2022-07-03T11:16:00;38.50;25.70
10451;DHT22;5273;51.290;6.918;2022-07-03T11:18:31;37.80;26.30
10451;DHT22;5273;51.290;6.918;2022-07-03T11:24:27;37.20;26.10
10451;DHT22;5273;51.290;6.918;2022-07-03T11:27:22;36.60;27.30
10451;DHT22;5273;51.290;6.918;2022-07-03T11:29:57;36.30;28.50
10451;DHT22;5273;51.290;6.918;2022-07-03T11:32:49;36.00;28.90
10451;DHT22;5273;51.290;6.918;2022-07-03T11:35:45;35.60;28.20
10451;DHT22;5273;51.290;6.918;2022-07-03T11:38:15;35.30;28.40
10451;DHT22;5273;51.290;6.918;2022-07-03T11:40:43;35.10;28.80
10451;DHT22;5273;51.290;6.918;2022-07-03T11:43:11;35.20;28.90
10451;DHT22;5273;51.290;6.918;2022-07-03T11:45:38;35.20;29.90
10451;DHT22;5273;51.290;6.918;2022-07-03T11:48:09;34.80;29.00
10451;DHT22;5273;51.290;6.918;2022-07-03T11:50:37;34.40;29.70
10451;DHT22;5273;51.290;6.918;2022-07-03T11:53:22;34.20;29.40
10451;DHT22;5273;51.290;6.918;2022-07-03T11:55:54;34.10;30.20
10451;DHT22;5273;51.290;6.918;2022-07-03T11:58:22;34.20;31.10
10451;DHT22;5273;51.290;6.918;2022-07-03T12:00:50;34.10;31.10
10451;DHT22;5273;51.290;6.918;2022-07-03T12:03:24;34.00;31.00
10451;DHT22;5273;51.290;6.918;2022-07-03T12:05:54;33.90;30.30
10451;DHT22;5273;51.290;6.918;2022-07-03T12:08:29;33.90;30.90
10451;DHT22;5273;51.290;6.918;2022-07-03T12:10:59;33.80;30.90
10451;DHT22;5273;51.290;6.918;2022-07-03T12:13:26;33.90;30.90
10451;DHT22;5273;51.290;6.918;2022-07-03T12:16:06;33.90;31.40
10451;DHT22;5273;51.290;6.918;2022-07-03T12:18:46;33.80;30.00
10451;DHT22;5273;51.290;6.918;2022-07-03T12:21:14;33.80;30.40
10451;DHT22;5273;51.290;6.918;2022-07-03T12:23:43;33.90;31.20
10451;DHT22;5273;51.290;6.918;2022-07-03T12:26:10;34.00;31.60
10451;DHT22;5273;51.290;6.918;2022-07-03T12:28:37;34.00;30.00
10451;DHT22;5273;51.290;6.918;2022-07-03T12:31:04;34.00;30.60
10451;DHT22;5273;51.290;6.918;2022-07-03T12:33:32;33.90;29.20
10451;DHT22;5273;51.290;6.918;2022-07-03T12:36:07;33.60;30.40
10451;DHT22;5273;51.290;6.918;2022-07-03T12:38:36;33.60;31.00
10451;DHT22;5273;51.290;6.918;2022-07-03T12:41:04;33.60;30.70
10451;DHT22;5273;51.290;6.918;2022-07-03T12:43:38;33.50;31.20
10451;DHT22;5273;51.290;6.918;2022-07-03T12:46:16;33.30;31.00
10451;DHT22;5273;51.290;6.918;2022-07-03T12:48:47;33.10;30.10
10451;DHT22;5273;51.290;6.918;2022-07-03T12:51:17;32.90;30.50
10451;DHT22;5273;51.290;6.918;2022-07-03T12:54:02;32.80;32.20
10451;DHT22;5273;51.290;6.918;2022-07-03T12:56:29;32.90;31.90
10451;DHT22;5273;51.290;6.918;2022-07-03T12:58:55;32.90;33.00
10451;DHT22;5273;51.290;6.918;2022-07-03T13:01:40;32.80;33.40
10451;DHT22;5273;51.290;6.918;2022-07-03T13:04:08;32.70;32.20
10451;DHT22;5273;51.290;6.918;2022-07-03T13:06:41;32.60;32.50
10451;DHT22;5273;51.290;6.918;2022-07-03T13:09:08;32.50;31.70
10451;DHT22;5273;51.290;6.918;2022-07-03T13:11:37;32.50;31.90
10451;DHT22;5273;51.290;6.918;2022-07-03T13:14:08;32.50;31.80
10451;DHT22;5273;51.290;6.918;2022-07-03T13:16:41;32.50;32.60
10451;DHT22;5273;51.290;6.918;2022-07-03T13:19:10;32.40;31.50
10451;DHT22;5273;51.290;6.918;2022-07-03T13:21:37;32.20;31.90
10451;DHT22;5273;51.290;6.918;2022-07-03T13:24:06;32.20;32.70
10451;DHT22;5273;51.290;6.918;2022-07-03T13:26:33;32.30;33.30
10451;DHT22;5273;51.290;6.918;2022-07-03T13:29:00;32.10;33.60
10451;DHT22;5273;51.290;6.918;2022-07-03T13:31:27;32.10;33.20
10451;DHT22;5273;51.290;6.918;2022-07-03T13:33:54;32.10;33.20
10451;DHT22;5273;51.290;6.918;2022-07-03T13:36:21;32.10;33.60
10451;DHT22;5273;51.290;6.918;2022-07-03T13:38:48;31.90;32.70
10451;DHT22;5273;51.290;6.918;2022-07-03T13:41:16;31.80;33.70
10451;DHT22;5273;51.290;6.918;2022-07-03T13:43:44;31.60;33.60
10451;DHT22;5273;51.290;6.918;2022-07-03T13:46:11;31.60;33.60
10451;DHT22;5273;51.290;6.918;2022-07-03T13:48:38;31.60;33.70
10451;DHT22;5273;51.290;6.918;2022-07-03T13:51:05;31.60;34.40
10451;DHT22;5273;51.290;6.918;2022-07-03T13:53:32;31.50;34.10
10451;DHT22;5273;51.290;6.918;2022-07-03T13:55:59;31.40;33.60
10451;DHT22;5273;51.290;6.918;2022-07-03T13:58:27;31.40;33.20
10451;DHT22;5273;51.290;6.918;2022-07-03T14:00:55;31.30;34.00
10451;DHT22;5273;51.290;6.918;2022-07-03T14:03:22;31.40;33.90
10451;DHT22;5273;51.290;6.918;2022-07-03T14:05:49;31.50;34.10
10451;DHT22;5273;51.290;6.918;2022-07-03T14:08:17;31.40;34.40
10451;DHT22;5273;51.290;6.918;2022-07-03T14:10:44;31.40;34.80
10451;DHT22;5273;51.290;6.918;2022-07-03T14:13:11;31.20;34.30
10451;DHT22;5273;51.290;6.918;2022-07-03T14:15:40;31.00;34.10
10451;DHT22;5273;51.290;6.918;2022-07-03T14:18:07;30.70;34.30
10451;DHT22;5273;51.290;6.918;2022-07-03T14:20:33;30.50;35.50
10451;DHT22;5273;51.290;6.918;2022-07-03T14:23:00;30.50;35.70
10451;DHT22;5273;51.290;6.918;2022-07-03T14:25:27;30.40;35.50
10451;DHT22;5273;51.290;6.918;2022-07-03T14:27:54;30.20;36.20
10451;DHT22;5273;51.290;6.918;2022-07-03T14:30:40;30.00;35.60
10451;DHT22;5273;51.290;6.918;2022-07-03T14:33:24;29.80;36.60
10451;DHT22;5273;51.290;6.918;2022-07-03T14:35:51;29.70;36.30
10451;DHT22;5273;51.290;6.918;2022-07-03T14:38:19;29.60;36.60
10451;DHT22;5273;51.290;6.918;2022-07-03T14:40:46;29.60;36.50
10451;DHT22;5273;51.290;6.918;2022-07-03T14:43:13;29.60;36.40
10451;DHT22;5273;51.290;6.918;2022-07-03T14:45:41;29.70;37.10
10451;DHT22;5273;51.290;6.918;2022-07-03T14:48:08;29.90;36.80
10451;DHT22;5273;51.290;6.918;2022-07-03T14:50:35;30.00;36.70
10451;DHT22;5273;51.290;6.918;2022-07-03T14:53:05;30.10;37.70
10451;DHT22;5273;51.290;6.918;2022-07-03T14:55:37;30.20;36.50
10451;DHT22;5273;51.290;6.918;2022-07-03T14:58:13;30.10;37.30
10451;DHT22;5273;51.290;6.918;2022-07-03T15:00:46;30.20;36.20
10451;DHT22;5273;51.290;6.918;2022-07-03T15:03:17;30.10;36.30
10451;DHT22;5273;51.290;6.918;2022-07-03T15:05:46;30.00;37.60
10451;DHT22;5273;51.290;6.918;2022-07-03T15:08:42;30.00;36.90
10451;DHT22;5273;51.290;6.918;2022-07-03T15:11:14;30.00;36.60
10451;DHT22;5273;51.290;6.918;2022-07-03T15:14:02;29.90;36.40
10451;DHT22;5273;51.290;6.918;2022-07-03T15:16:31;29.70;37.30
10451;DHT22;5273;51.290;6.918;2022-07-03T15:18:59;29.50;37.10
10451;DHT22;5273;51.290;6.918;2022-07-03T15:21:29;29.30;37.50
10451;DHT22;5273;51.290;6.918;2022-07-03T15:23:59;29.10;37.20
10451;DHT22;5273;51.290;6.918;2022-07-03T15:26:28;29.00;37.00
10451;DHT22;5273;51.290;6.918;2022-07-03T15:28:57;28.90;37.30
10451;DHT22;5273;51.290;6.918;2022-07-03T15:31:26;28.90;37.70
10451;DHT22;5273;51.290;6.918;2022-07-03T15:33:55;28.90;37.30
10451;DHT22;5273;51.290;6.918;2022-07-03T15:36:26;28.80;37.60
10451;DHT22;5273;51.290;6.918;2022-07-03T15:39:02;28.70;38.40
10451;DHT22;5273;51.290;6.918;2022-07-03T15:41:38;28.60;37.90
10451;DHT22;5273;51.290;6.918;2022-07-03T15:44:18;28.50;37.60
10451;DHT22;5273;51.290;6.918;2022-07-03T15:46:57;28.30;38.60
10451;DHT22;5273;51.290;6.918;2022-07-03T15:49:30;28.00;39.00
10451;DHT22;5273;51.290;6.918;2022-07-03T15:52:17;27.90;39.40
10451;DHT22;5273;51.290;6.918;2022-07-03T15:54:51;27.90;40.70
10451;DHT22;5273;51.290;6.918;2022-07-03T15:57:26;28.00;40.30
10451;DHT22;5273;51.290;6.918;2022-07-03T15:59:58;27.90;39.50
10451;DHT22;5273;51.290;6.918;2022-07-03T16:02:29;27.90;39.90
10451;DHT22;5273;51.290;6.918;2022-07-03T16:05:05;27.90;39.80
10451;DHT22;5273;51.290;6.918;2022-07-03T16:07:34;27.80;40.60
10451;DHT22;5273;51.290;6.918;2022-07-03T16:10:04;27.80;40.80